createdAt,value
2018-08-25T00:01:52.064Z,14.62
2018-08-25T00:06:52.151Z,14.50
2018-08-25T00:11:52.360Z,14.45
2018-08-25T00:16:51.621Z,14.24
2018-08-25T00:21:52.735Z,14.42
2018-08-25T00:26:51.698Z,14.23
2018-08-25T00:31:51.978Z,14.09
2018-08-25T00:36:52.443Z,14.29
2018-08-25T00:41:51.729Z,14.31
2018-08-25T00:46:56.988Z,14.20
2018-08-25T00:51:52.867Z,14.27
2018-08-25T00:56:52.053Z,14.14
2018-08-25T01:01:52.316Z,13.93
2018-08-25T01:06:51.828Z,14.03
2018-08-25T01:11:52.084Z,14.14
2018-08-25T01:16:52.351Z,14.02
2018-08-25T01:21:51.804Z,14.02
2018-08-25T01:26:52.408Z,14.20
2018-08-25T01:31:51.692Z,14.24
2018-08-25T01:36:52.145Z,14.17
2018-08-25T01:41:52.769Z,14.21
2018-08-25T01:46:52.452Z,14.29
2018-08-25T01:51:52.143Z,14.14
2018-08-25T01:56:51.702Z,13.99
2018-08-25T02:01:51.961Z,14.02
2018-08-25T02:06:52.414Z,13.88
2018-08-25T02:11:56.660Z,13.88
2018-08-25T02:16:51.901Z,14.00
2018-08-25T02:21:52.772Z,13.96
2018-08-25T02:26:51.988Z,14.07
2018-08-25T02:31:52.657Z,14.26
2018-08-25T02:36:51.744Z,14.31
2018-08-25T02:41:51.938Z,14.24
2018-08-25T02:46:52.225Z,14.23
2018-08-25T02:51:51.700Z,14.23
2018-08-25T02:56:52.288Z,14.37
2018-08-25T03:01:51.596Z,14.55
2018-08-25T03:06:52.135Z,14.50
2018-08-25T03:11:52.341Z,14.67
2018-08-25T03:16:51.631Z,14.46
2018-08-25T03:21:52.089Z,14.26
2018-08-25T03:26:51.662Z,14.37
2018-08-25T03:31:51.955Z,14.45
2018-08-25T03:36:52.407Z,14.36
2018-08-25T03:41:51.627Z,14.64
2018-08-25T03:46:51.899Z,14.77
2018-08-25T03:51:52.360Z,14.79
2018-08-25T03:56:51.966Z,14.85
2018-08-25T04:01:52.225Z,14.88
2018-08-25T04:06:51.746Z,14.68
2018-08-25T04:11:51.988Z,14.88
2018-08-25T04:16:52.238Z,15.08
2018-08-25T04:21:51.747Z,15.28
2018-08-25T04:26:52.294Z,15.08
2018-08-25T04:31:51.573Z,15.08
2018-08-25T04:36:52.078Z,15.08
2018-08-25T04:41:52.261Z,15.08
2018-08-25T04:46:51.546Z,15.28
2018-08-25T04:51:52.031Z,15.08
2018-08-25T04:56:51.597Z,15.08
2018-08-25T05:01:52.043Z,15.18
2018-08-25T05:06:52.402Z,14.48
2018-08-25T05:11:52.865Z,14.48
2018-08-25T05:16:51.764Z,14.58
2018-08-25T05:21:52.337Z,14.88
2018-08-25T05:26:51.830Z,14.28
2018-08-25T05:31:52.080Z,14.78
2018-08-25T05:36:52.563Z,14.78
2018-08-25T05:41:51.802Z,14.68
2018-08-25T05:46:52.462Z,14.58
2018-08-25T05:51:52.511Z,14.48
2018-08-25T05:56:52.061Z,14.48
2018-08-25T06:01:52.346Z,14.58
2018-08-25T06:06:51.858Z,14.18
2018-08-25T06:11:52.106Z,14.28
2018-08-25T06:16:52.366Z,14.58
2018-08-25T06:21:51.857Z,14.48
2018-08-25T06:26:52.437Z,13.88
2018-08-25T06:31:51.687Z,13.98
2018-08-25T06:36:52.196Z,14.08
2018-08-25T06:41:52.389Z,14.28
2018-08-25T06:46:51.693Z,14.18
2018-08-25T06:51:52.106Z,14.48
2018-08-25T06:56:51.731Z,14.38
2018-08-25T07:01:52.027Z,14.48
2018-08-25T07:06:52.523Z,14.58
2018-08-25T07:11:51.741Z,14.28
2018-08-25T07:16:57.052Z,14.18
2018-08-25T07:21:52.557Z,14.38
2018-08-25T07:26:52.064Z,14.48
2018-08-25T07:31:52.480Z,14.38
2018-08-25T07:36:51.811Z,14.48
2018-08-25T07:41:51.989Z,14.58
2018-08-25T07:46:52.281Z,14.28
2018-08-25T07:51:51.805Z,14.78
2018-08-25T07:56:52.309Z,14.58
2018-08-25T08:01:51.599Z,14.58
2018-08-25T08:06:52.105Z,14.58
2018-08-25T08:11:52.928Z,14.48
2018-08-25T08:16:51.656Z,13.98
2018-08-25T08:21:52.111Z,14.78
2018-08-25T08:26:51.685Z,14.78
2018-08-25T08:31:51.940Z,14.65
2018-08-25T08:36:52.416Z,14.78
2018-08-25T08:41:51.677Z,14.98
2018-08-25T08:46:51.933Z,14.86
2018-08-25T08:51:52.423Z,14.80
2018-08-25T08:56:52.037Z,14.70
2018-08-25T09:01:52.272Z,14.52
2018-08-25T09:06:51.817Z,14.76
2018-08-25T09:11:52.831Z,14.70
2018-08-25T09:16:52.330Z,14.38
2018-08-25T09:21:51.798Z,14.18
2018-08-25T09:26:57.491Z,14.58
2018-08-25T09:31:51.679Z,14.88
2018-08-25T09:36:52.825Z,14.98
2018-08-25T09:41:52.602Z,15.18
2018-08-25T09:46:51.843Z,14.91
2018-08-25T09:51:52.157Z,14.88
2018-08-25T09:56:51.743Z,14.68
2018-08-25T10:01:51.998Z,15.01
2018-08-25T10:06:52.502Z,15.02
2018-08-25T10:11:51.738Z,14.77
2018-08-25T10:16:52.341Z,14.94
2018-08-25T10:21:52.533Z,15.04
2018-08-25T10:26:52.089Z,15.18
2018-08-25T10:31:52.382Z,15.63
2018-08-25T10:36:51.848Z,15.27
2018-08-25T10:41:52.691Z,15.15
2018-08-25T10:46:52.418Z,15.18
2018-08-25T10:51:51.823Z,15.73
2018-08-25T10:56:52.400Z,15.78
2018-08-25T11:01:51.682Z,15.83
2018-08-25T11:06:52.176Z,16.03
2018-08-25T11:11:52.418Z,16.22
2018-08-25T11:16:51.698Z,16.06
2018-08-25T11:21:53.164Z,16.39
2018-08-25T11:26:51.764Z,16.48
2018-08-25T11:31:52.028Z,16.23
2018-08-25T11:36:52.509Z,16.01
2018-08-25T11:41:51.720Z,16.25
2018-08-25T11:46:51.987Z,16.06
2018-08-25T11:51:52.478Z,15.84
2018-08-25T11:56:52.107Z,16.22
2018-08-25T12:01:52.321Z,15.85
2018-08-25T12:06:51.872Z,16.12
2018-08-25T12:11:52.074Z,16.37
2018-08-25T12:16:52.354Z,16.21
2018-08-25T12:21:51.845Z,16.94
2018-08-25T12:26:52.365Z,17.08
2018-08-25T12:31:51.677Z,17.26
2018-08-25T12:36:52.176Z,16.90
2018-08-25T12:41:52.350Z,17.26
2018-08-25T12:46:51.648Z,17.10
2018-08-25T12:51:52.094Z,17.04
2018-08-25T12:56:51.768Z,16.44
2018-08-25T13:01:51.963Z,16.85
2018-08-25T13:06:52.521Z,17.07
2018-08-25T13:11:53.131Z,16.52
2018-08-25T13:16:53.024Z,16.75
2018-08-25T13:21:52.714Z,16.40
2018-08-25T13:26:52.078Z,17.20
2018-08-25T13:31:52.372Z,17.32
2018-08-25T13:36:51.830Z,17.22
2018-08-25T13:41:52.074Z,17.13
2018-08-25T13:46:52.346Z,17.18
2018-08-25T13:51:51.838Z,17.64
2018-08-25T13:56:52.401Z,17.79
2018-08-25T14:01:52.091Z,18.00
2018-08-25T14:06:52.192Z,18.13
2018-08-25T14:11:52.379Z,17.92
2018-08-25T14:16:51.672Z,17.94
2018-08-25T14:21:52.156Z,17.59
2018-08-25T14:26:51.713Z,16.86
2018-08-25T14:31:51.982Z,17.10
2018-08-25T14:36:52.494Z,16.96
2018-08-25T14:41:51.915Z,17.43
2018-08-25T14:46:51.973Z,17.72
2018-08-25T14:51:52.430Z,18.05
2018-08-25T14:56:52.070Z,18.15
2018-08-25T15:01:52.315Z,18.01
2018-08-25T15:06:51.847Z,18.18
2018-08-25T15:11:52.033Z,17.98
2018-08-25T15:16:52.333Z,18.03
2018-08-25T15:21:51.850Z,18.21
2018-08-25T15:26:52.378Z,17.66
2018-08-25T15:31:51.673Z,16.45
2018-08-25T15:36:52.633Z,16.30
2018-08-25T15:41:52.326Z,16.80
2018-08-25T15:46:51.618Z,16.12
2018-08-25T15:51:52.650Z,16.15
2018-08-25T15:56:51.702Z,16.29
2018-08-25T16:01:51.981Z,16.68
2018-08-25T16:06:52.458Z,16.63
2018-08-25T16:11:52.157Z,16.18
2018-08-25T16:16:51.994Z,16.43
2018-08-25T16:21:52.465Z,16.45
2018-08-25T16:26:52.214Z,16.25
2018-08-25T16:31:52.340Z,15.96
2018-08-25T16:36:52.858Z,15.95
2018-08-25T16:41:52.055Z,15.95
2018-08-25T16:46:52.295Z,15.28
2018-08-25T16:51:51.780Z,15.77
2018-08-25T16:56:52.540Z,15.86
2018-08-25T17:01:51.710Z,15.71
2018-08-25T17:06:52.181Z,15.95
2018-08-25T17:11:52.379Z,15.85
2018-08-25T17:16:51.687Z,15.67
2018-08-25T17:21:52.191Z,15.97
2018-08-25T17:26:51.980Z,15.87
2018-08-25T17:31:52.012Z,15.73
2018-08-25T17:36:52.507Z,16.06
2018-08-25T17:41:51.709Z,15.81
2018-08-25T17:46:52.013Z,15.35
2018-08-25T17:51:52.504Z,15.01
2018-08-25T17:56:52.275Z,15.10
2018-08-25T18:01:52.421Z,15.19
2018-08-25T18:06:51.893Z,15.25
2018-08-25T18:11:52.071Z,15.45
2018-08-25T18:16:52.359Z,15.04
2018-08-25T18:21:51.874Z,15.11
2018-08-25T18:26:52.427Z,15.01
2018-08-25T18:31:51.823Z,15.11
2018-08-25T18:36:52.591Z,14.47
2018-08-25T18:41:52.349Z,14.53
2018-08-25T18:46:51.625Z,14.55
2018-08-25T18:51:52.141Z,14.60
2018-08-25T18:56:51.752Z,14.17
2018-08-25T19:01:52.545Z,14.09
2018-08-25T19:06:52.497Z,14.11
2018-08-25T19:11:51.743Z,14.29
2018-08-25T19:16:52.045Z,13.79
2018-08-25T19:21:52.506Z,13.87
2018-08-25T19:26:57.068Z,13.95
2018-08-25T19:31:52.358Z,13.53
2018-08-25T19:36:51.870Z,13.53
2018-08-25T19:41:52.028Z,13.46
2018-08-25T19:46:52.412Z,13.71
2018-08-25T19:51:56.864Z,13.76
2018-08-25T19:56:52.404Z,13.40
2018-08-25T20:01:51.669Z,13.63
2018-08-25T20:06:52.167Z,13.43
2018-08-25T20:11:52.382Z,13.05
2018-08-25T20:16:51.710Z,13.17
2018-08-25T20:21:52.127Z,13.18
2018-08-25T20:26:51.789Z,13.12
2018-08-25T20:31:51.990Z,13.08
2018-08-25T20:36:52.455Z,12.92
2018-08-25T20:41:52.507Z,12.93
2018-08-25T20:46:51.955Z,12.90
2018-08-25T20:51:52.463Z,12.85
2018-08-25T20:56:52.030Z,12.69
2018-08-25T21:01:52.308Z,12.50
2018-08-25T21:06:51.792Z,12.87
2018-08-25T21:11:52.137Z,12.95
2018-08-25T21:16:52.741Z,12.75
2018-08-25T21:21:52.226Z,12.37
2018-08-25T21:26:52.375Z,12.83
2018-08-25T21:31:51.681Z,13.09
2018-08-25T21:36:52.166Z,12.48
2018-08-25T21:41:52.363Z,12.33
2018-08-25T21:46:51.611Z,12.42
2018-08-25T21:51:52.099Z,12.29
2018-08-25T21:56:51.709Z,12.15
2018-08-25T22:01:52.583Z,11.68
2018-08-25T22:06:52.418Z,11.78
2018-08-25T22:11:51.704Z,11.78
2018-08-25T22:16:52.346Z,11.88
2018-08-25T22:21:52.405Z,11.58
2018-08-25T22:26:52.409Z,11.18
2018-08-25T22:31:52.873Z,12.04
2018-08-25T22:36:51.741Z,11.88
2018-08-25T22:41:52.543Z,11.28
2018-08-25T22:46:52.226Z,11.38
2018-08-25T22:51:51.728Z,11.48
2018-08-25T22:56:52.348Z,11.38
2018-08-25T23:01:51.650Z,11.28
2018-08-25T23:06:52.188Z,11.28
2018-08-25T23:11:52.348Z,11.08
2018-08-25T23:16:51.709Z,10.98
2018-08-25T23:21:52.534Z,11.18
2018-08-25T23:26:51.721Z,10.68
2018-08-25T23:31:51.974Z,10.98
2018-08-25T23:36:52.460Z,11.18
2018-08-25T23:41:51.707Z,10.68
2018-08-25T23:46:51.992Z,10.68
2018-08-25T23:51:52.418Z,10.58
2018-08-25T23:56:57.058Z,10.78
